Bookmark and Share
Track history (hours):
 

Pilot No 5

More information available from US FCC via Universal Licensing System and Coast Guard Vessel Documentation Center.

Last reported at 2014-Apr-15 01:34 UTC. Time now 2014-Apr-23 07:00 UTC.
Position N 26°06' W 080°07'.
Warning: this ship's position is 8 days out of date.

Length 6 m.

Type: Pilot. MMSI: 367015090.

NotesDate/timePositionNaut miles runAvg speedWind from/ knotsBaromVisibWave heightAir tempDewpointWater temp
2014-Apr-15 01:34N 26°06' W 080°07'0 0.0
2014-Apr-15 00:34N 26°06' W 080°07'0 0.0
2014-Apr-14 23:34N 26°06' W 080°07'0 0.0
2014-Apr-14 22:34N 26°06' W 080°07'0 0.0
2014-Apr-14 21:34N 26°06' W 080°07'0 0.0
2014-Apr-14 20:34N 26°06' W 080°07'0 0.0
2014-Apr-14 19:34N 26°06' W 080°07'0 0.0
2014-Apr-14 18:34N 26°06' W 080°07'0 0.0
2014-Apr-14 17:34N 26°06' W 080°07'0 0.0
2014-Apr-14 16:34N 26°06' W 080°07'0 0.0
2014-Apr-14 15:33N 26°06' W 080°07'0 0.0
2014-Apr-14 14:33N 26°06' W 080°07'1 0.2
2014-Apr-14 11:34N 26°06' W 080°07'6 1.9
2014-Apr-14 08:33N 26°06' W 080°01'2 2.0
2014-Apr-14 07:34N 26°06' W 080°03'4 3.6
2014-Apr-14 06:33N 26°05' W 080°07'0 0.4
2014-Apr-14 05:33N 26°06' W 080°07'0 0.0
2014-Apr-13 09:29N 26°06' W 080°07'0 0.5
2014-Apr-13 08:33N 26°06' W 080°07'2 1.6
2014-Apr-13 07:34N 26°06' W 080°05'1 0.7
2014-Apr-13 05:33N 26°06' W 080°07'0 0.3
2014-Apr-13 04:33N 26°05' W 080°07'0 0.2
2014-Apr-13 03:33N 26°05' W 080°07'3 0.2
2014-Apr-12 10:33N 26°06' W 080°04'0 0.3
2014-Apr-12 09:33N 26°06' W 080°04'3 3.0
2014-Apr-12 08:33N 26°05' W 080°07'0 0.3
2014-Apr-12 07:33N 26°05' W 080°07'0 0.3
2014-Apr-12 06:33N 26°06' W 080°07'0 0.2
2014-Apr-12 05:33N 26°05' W 080°07'0 0.2
2014-Apr-12 04:33N 26°05' W 080°07'3 3.4
2014-Apr-12 03:34N 26°05' W 080°03'  
2014-Apr-08 12:10N 26°06' W 080°07'1 1.3
2014-Apr-08 11:33N 26°06' W 080°07'1 0.0
2014-Apr-07 17:34N 26°06' W 080°07'0 0.0
2014-Apr-07 16:33N 26°06' W 080°07'0 0.0
2014-Apr-07 15:33N 26°06' W 080°07'0 0.0
2014-Apr-07 14:33N 26°06' W 080°07'0 0.0
2014-Apr-07 13:26N 26°06' W 080°07'0 0.0
2014-Apr-05 10:07N 26°06' W 080°07'0 0.0
2014-Apr-05 09:33N 26°06' W 080°07'0 0.0
2014-Apr-05 08:33N 26°06' W 080°07'0 0.0
2014-Apr-05 07:33N 26°06' W 080°07'0 0.0
2014-Apr-05 06:32N 26°06' W 080°07'0 0.0
2014-Apr-05 05:33N 26°06' W 080°07'0 0.0
2014-Apr-05 04:33N 26°06' W 080°07'0 0.0
2014-Apr-05 03:33N 26°06' W 080°07'0 0.0
2014-Apr-05 02:33N 26°06' W 080°07'  

Dump ship's entire track history

sailing weather and tide predictions

Pilot No 5 — WDC3840 — position and weather